createdAt,value
2023-04-27T06:19:58.142Z,45.60
2023-04-27T06:25:02.922Z,45.30
2023-04-27T06:30:09.553Z,41.10
2023-04-27T06:35:16.180Z,37.30
2023-04-27T06:40:20.487Z,33.20
2023-04-27T06:45:24.953Z,32.30
2023-04-27T06:50:31.076Z,29.70
2023-04-27T06:55:35.678Z,27.60
2023-04-27T17:04:16.548Z,35.90
2023-04-27T17:09:20.752Z,37.00
2023-04-27T17:14:24.792Z,37.40
2023-04-27T17:19:31.558Z,37.50
2023-04-27T17:24:35.729Z,37.70
2023-04-27T17:29:39.740Z,37.90
2023-04-27T17:34:45.938Z,38.10
2023-04-27T17:39:51.136Z,38.10
2023-04-27T17:44:55.486Z,38.60
2023-04-27T17:50:01.457Z,39.10
2023-04-27T17:55:06.159Z,39.70
2023-04-27T18:00:12.329Z,40.20
2023-04-27T18:05:18.401Z,40.60
2023-04-27T18:10:22.693Z,40.90
2023-04-27T18:15:26.765Z,41.20
2023-04-27T18:20:33.155Z,41.40
2023-04-27T18:25:37.274Z,41.70
2023-04-27T18:30:41.355Z,42.00
2023-04-27T18:35:47.349Z,42.30
2023-04-27T18:40:51.518Z,42.90
2023-04-27T18:45:55.676Z,43.10
2023-04-27T18:51:01.730Z,43.30
2023-04-27T18:56:08.026Z,43.60
2023-04-27T19:01:20.960Z,43.50
2023-04-27T19:06:27.095Z,43.80
2023-04-27T19:11:31.192Z,43.90
2023-04-27T19:16:36.292Z,44.00
2023-04-27T19:21:43.010Z,44.60
2023-04-27T19:26:47.997Z,45.00
2023-04-27T19:31:52.030Z,45.30
2023-04-27T19:36:58.285Z,45.50
2023-04-27T19:42:02.341Z,46.00
2023-04-27T19:47:06.467Z,46.30
2023-04-27T19:52:12.508Z,46.40
2023-04-27T19:57:16.599Z,46.60
2023-04-27T20:02:20.935Z,46.70
2023-04-27T20:07:27.010Z,46.90
2023-04-27T20:17:39.510Z,47.10
2023-04-27T20:22:46.296Z,47.10
2023-04-27T20:27:50.853Z,47.20
2023-04-27T20:32:55.896Z,47.10
2023-04-27T20:38:02.218Z,47.10
2023-04-27T20:43:07.473Z,47.20
2023-04-27T20:48:11.615Z,47.30
2023-04-27T20:53:17.793Z,47.40
2023-04-27T20:58:22.047Z,47.50
2023-04-27T21:03:26.262Z,47.60
2023-04-27T21:08:33.086Z,47.60
2023-04-27T21:13:37.098Z,47.60
2023-04-27T21:18:41.329Z,47.80
2023-04-27T21:23:51.720Z,48.40
2023-04-27T21:28:58.421Z,48.10
2023-04-27T21:34:02.865Z,48.10
2023-04-27T21:39:08.954Z,48.30
2023-04-27T21:44:13.242Z,48.50
2023-04-27T21:49:17.565Z,48.70
